Time;durP1;ratioP1;P1;durP2;ratioP2;P2;SDS_P1;SDS_P2;PMS_P1;PMS_P2;Temp;Humidity;BMP_temperature;BMP_pressure;BME280_temperature;BME280_humidity;BME280_pressure;Samples;Min_cycle;Max_cycle;Signal;HPM_P1;HPM_P2
2023/09/15 00:00:28;;;;;;;20.00;18.02;;;;;;;12.07;100.00;101814.88;5030400;28;20071;-64
2023/09/15 00:02:55;;;;;;;18.30;16.45;;;;;;;12.05;100.00;101820.88;5030326;28;20102;-64
2023/09/15 00:05:20;;;;;;;16.83;15.43;;;;;;;12.06;100.00;101822.63;5030192;28;20385;-64
2023/09/15 00:07:46;;;;;;;17.08;15.57;;;;;;;12.04;100.00;101819.06;5029480;28;20038;-65
2023/09/15 00:10:11;;;;;;;18.42;16.63;;;;;;;12.02;100.00;101816.41;5029688;28;20771;-64
2023/09/15 00:12:38;;;;;;;18.13;16.42;;;;;;;11.99;100.00;101811.09;5029999;28;20032;-65
2023/09/15 00:15:07;;;;;;;18.95;17.13;;;;;;;11.96;100.00;101809.25;5030009;28;20059;-64
2023/09/15 00:17:41;;;;;;;18.58;16.98;;;;;;;11.91;100.00;101813.34;5029578;28;20079;-64
2023/09/15 00:20:14;;;;;;;20.08;18.17;;;;;;;11.89;100.00;101812.44;5029604;28;20052;-65
2023/09/15 00:22:49;;;;;;;20.10;18.02;;;;;;;11.87;100.00;101806.28;5029849;28;20477;-64
2023/09/15 00:25:19;;;;;;;20.75;18.75;;;;;;;11.83;100.00;101805.28;5028945;28;20091;-64
2023/09/15 00:27:46;;;;;;;19.83;17.85;;;;;;;11.82;100.00;101797.41;5029757;28;20026;-64
2023/09/15 00:30:13;;;;;;;19.10;17.30;;;;;;;11.79;100.00;101795.56;5029699;28;20076;-64
2023/09/15 00:32:39;;;;;;;18.45;16.65;;;;;;;11.76;100.00;101798.91;5029602;28;20026;-65
2023/09/15 00:35:05;;;;;;;19.75;17.85;;;;;;;11.75;100.00;101807.53;5030008;28;20017;-64
2023/09/15 00:37:30;;;;;;;19.08;17.38;;;;;;;11.72;100.00;101797.03;5029271;28;20459;-64
2023/09/15 00:39:57;;;;;;;20.30;18.15;;;;;;;11.70;100.00;101798.66;5029304;28;20025;-65
2023/09/15 00:42:22;;;;;;;21.98;19.80;;;;;;;11.70;100.00;101793.47;5029767;28;20021;-64
2023/09/15 00:44:47;;;;;;;19.83;17.95;;;;;;;11.69;100.00;101791.72;5029386;28;20017;-64
2023/09/15 00:47:13;;;;;;;19.73;17.92;;;;;;;11.68;100.00;101789.91;5028934;28;20030;-64
2023/09/15 00:49:39;;;;;;;19.15;17.15;;;;;;;11.67;100.00;101793.34;5029192;28;20087;-64
2023/09/15 00:52:05;;;;;;;19.70;17.70;;;;;;;11.65;100.00;101789.78;5028726;28;20026;-64
2023/09/15 00:54:31;;;;;;;19.63;17.60;;;;;;;11.61;100.00;101785.28;5029652;28;20025;-64
2023/09/15 00:56:56;;;;;;;18.23;16.52;;;;;;;11.60;100.00;101791.31;5028829;28;20037;-65
2023/09/15 00:59:22;;;;;;;19.98;18.08;;;;;;;11.58;100.00;101782.56;5028921;28;20018;-64
2023/09/15 01:01:48;;;;;;;19.38;17.58;;;;;;;11.56;100.00;101787.69;5028706;28;20040;-64
2023/09/15 01:04:13;;;;;;;19.52;17.58;;;;;;;11.52;100.00;101784.06;5029041;28;20041;-64
2023/09/15 01:06:42;;;;;;;18.75;16.95;;;;;;;11.51;100.00;101782.28;5028608;28;20372;-64
2023/09/15 01:09:08;;;;;;;18.83;16.75;;;;;;;11.48;100.00;101779.56;5027320;28;20048;-64
2023/09/15 01:11:34;;;;;;;18.67;16.98;;;;;;;11.46;100.00;101781.19;5029377;28;20560;-64
2023/09/15 01:13:59;;;;;;;18.92;17.27;;;;;;;11.43;100.00;101777.56;5028700;28;20522;-64
2023/09/15 01:16:41;;;;;;;18.73;16.92;;;;;;;11.40;100.00;101767.97;5028979;28;20032;-65
2023/09/15 01:19:09;;;;;;;17.80;16.20;;;;;;;11.38;100.00;101774.78;5028953;28;20028;-65
2023/09/15 01:22:14;;;;;;;17.02;15.48;;;;;;;11.34;100.00;101770.28;5028522;28;20656;-64
2023/09/15 01:25:04;;;;;;;16.92;15.23;;;;;;;11.31;100.00;101770.16;5026255;28;20071;-64
2023/09/15 01:28:00;;;;;;;17.90;16.25;;;;;;;11.26;100.00;101768.22;5028449;28;20033;-65
2023/09/15 01:30:29;;;;;;;17.88;16.25;;;;;;;11.23;100.00;101762.91;5028826;28;20025;-63
2023/09/15 01:32:56;;;;;;;18.27;16.42;;;;;;;11.24;100.00;101759.50;5028498;28;20489;-64
2023/09/15 01:35:22;;;;;;;18.65;17.13;;;;;;;11.20;100.00;101757.59;5028080;28;20064;-64
2023/09/15 01:37:47;;;;;;;19.75;17.88;;;;;;;11.18;100.00;101759.22;5028782;28;20025;-64
2023/09/15 01:40:12;;;;;;;18.15;16.45;;;;;;;11.14;100.00;101759.91;5028882;28;20449;-64
2023/09/15 01:42:40;;;;;;;19.05;17.35;;;;;;;11.11;100.00;101758.09;5028464;28;20029;-64
2023/09/15 01:45:06;;;;;;;18.00;16.30;;;;;;;11.10;100.00;101755.44;5028031;28;20079;-64
2023/09/15 01:47:33;;;;;;;19.70;17.73;;;;;;;11.08;100.00;101749.28;5028056;28;20022;-64
2023/09/15 01:49:59;;;;;;;19.08;17.35;;;;;;;11.10;100.00;101758.03;5028015;28;20026;-63
2023/09/15 01:52:25;;;;;;;19.85;18.05;;;;;;;11.07;100.00;101752.66;5028032;28;20178;-64
2023/09/15 01:54:54;;;;;;;20.52;18.52;;;;;;;11.04;100.00;101751.72;5027774;28;20533;-64
2023/09/15 01:57:20;;;;;;;20.73;18.40;;;;;;;11.02;100.00;101750.78;5027632;28;20524;-64
2023/09/15 01:59:45;;;;;;;19.63;17.88;;;;;;;10.98;100.00;101754.03;5027647;28;20033;-64
2023/09/15 02:02:10;;;;;;;20.05;18.27;;;;;;;10.94;100.00;101746.94;5027028;28;20671;-64
2023/09/15 02:04:37;;;;;;;19.20;17.52;;;;;;;10.92;100.00;101748.56;5027876;28;20029;-63
2023/09/15 02:07:03;;;;;;;18.30;16.50;;;;;;;10.92;100.00;101745.97;5027726;28;20056;-64
2023/09/15 02:09:28;;;;;;;18.17;16.48;;;;;;;10.89;100.00;101748.44;5027627;28;20029;-64
2023/09/15 02:11:53;;;;;;;18.27;16.67;;;;;;;10.87;100.00;101752.66;5027763;28;20033;-64
2023/09/15 02:14:19;;;;;;;19.92;17.98;;;;;;;10.81;100.00;101746.38;5026974;28;20029;-64
2023/09/15 02:16:44;;;;;;;18.40;16.80;;;;;;;10.77;100.00;101752.25;5027737;28;20548;-64
2023/09/15 02:19:09;;;;;;;19.20;17.55;;;;;;;10.73;100.00;101747.75;5027767;28;20026;-63
2023/09/15 02:21:35;;;;;;;17.38;15.88;;;;;;;10.70;100.00;101747.63;5027564;28;20112;-62
2023/09/15 02:24:02;;;;;;;19.65;16.67;;;;;;;10.67;100.00;101752.63;5027706;28;20040;-64
2023/09/15 02:26:27;;;;;;;18.35;16.63;;;;;;;10.64;100.00;101749.91;5026893;28;20467;-62
2023/09/15 02:28:53;;;;;;;18.25;16.52;;;;;;;10.63;100.00;101745.56;5027734;28;20029;-64
2023/09/15 02:31:18;;;;;;;18.17;16.45;;;;;;;10.61;100.00;101739.41;5027228;28;20068;-64
2023/09/15 02:33:45;;;;;;;18.60;16.90;;;;;;;10.61;100.00;101739.41;5027250;28;20033;-64
2023/09/15 02:36:10;;;;;;;18.60;16.83;;;;;;;10.59;100.00;101733.25;5026854;28;20029;-64
2023/09/15 02:38:35;;;;;;;18.73;16.98;;;;;;;10.56;100.00;101732.28;5027432;28;20029;-63
2023/09/15 02:41:01;;;;;;;18.88;15.88;;;;;;;10.53;100.00;101733.84;5027654;28;20025;-64
2023/09/15 02:43:26;;;;;;;17.65;16.13;;;;;;;10.51;100.00;101731.19;5027443;28;20033;-64
2023/09/15 02:45:51;;;;;;;17.52;15.90;;;;;;;10.51;100.00;101727.72;5027029;28;20039;-64
2023/09/15 02:48:17;;;;;;;17.90;16.17;;;;;;;10.51;100.00;101732.91;5027132;28;20068;-63
2023/09/15 02:50:42;;;;;;;17.60;15.88;;;;;;;10.46;100.00;101732.66;5016417;28;20049;-63
2023/09/15 02:53:08;;;;;;;17.27;15.55;;;;;;;10.44;100.00;101739.47;5007674;28;20030;-64
2023/09/15 02:55:34;;;;;;;16.67;15.18;;;;;;;10.41;100.00;101732.44;5007452;28;20033;-64
2023/09/15 02:57:59;;;;;;;16.02;14.63;;;;;;;10.39;100.00;101730.59;5007540;28;20030;-64
2023/09/15 03:00:24;;;;;;;16.33;14.82;;;;;;;10.36;100.00;101725.28;5007006;28;20465;-64
2023/09/15 03:02:51;;;;;;;16.52;15.05;;;;;;;10.35;100.00;101732.16;5007640;28;20033;-64
2023/09/15 03:05:20;;;;;;;16.42;14.82;;;;;;;10.33;100.00;101729.50;5007747;28;20022;-64
2023/09/15 03:07:45;;;;;;;17.60;15.95;;;;;;;10.32;100.00;101725.13;5007540;28;20054;-64
2023/09/15 03:10:10;;;;;;;15.85;14.35;;;;;;;10.31;100.00;101725.94;5007502;28;20064;-64
2023/09/15 03:12:36;;;;;;;16.30;14.57;;;;;;;10.31;100.00;101731.13;5006687;28;20109;-63
2023/09/15 03:15:06;;;;;;;15.98;14.68;;;;;;;10.29;100.00;101730.16;5010494;28;20057;-64
2023/09/15 03:17:39;;;;;;;17.02;15.50;;;;;;;10.24;100.00;101726.47;5011675;28;20026;-64
2023/09/15 03:20:15;;;;;;;16.67;15.23;;;;;;;10.22;100.00;101728.09;5011082;28;20037;-64
2023/09/15 03:22:42;;;;;;;17.20;15.70;;;;;;;10.19;100.00;101726.25;5011204;28;20113;-64
2023/09/15 03:25:08;;;;;;;16.08;14.68;;;;;;;10.17;100.00;101719.22;5010886;28;20355;-64
2023/09/15 03:27:33;;;;;;;15.95;14.65;;;;;;;10.14;100.00;101714.78;5011054;28;20037;-64
2023/09/15 03:29:58;;;;;;;15.27;13.98;;;;;;;10.11;100.00;101709.44;5011173;28;20557;-63
2023/09/15 03:32:24;;;;;;;16.02;14.02;;;;;;;10.08;100.00;101710.19;5011100;28;20041;-63
2023/09/15 03:34:49;;;;;;;15.82;14.43;;;;;;;10.07;100.00;101705.81;5011338;28;20080;-64
2023/09/15 03:37:14;;;;;;;15.90;14.50;;;;;;;10.06;100.00;101711.81;5011214;28;20025;-64
2023/09/15 03:39:39;;;;;;;14.88;13.48;;;;;;;10.06;100.00;101713.50;5010713;28;20022;-64
2023/09/15 03:42:05;;;;;;;15.07;13.70;;;;;;;10.07;100.00;101711.00;5010992;28;20026;-64
2023/09/15 03:44:30;;;;;;;15.00;13.60;;;;;;;10.02;100.00;101709.88;5010770;28;20084;-64
2023/09/15 03:46:56;;;;;;;15.25;13.85;;;;;;;10.02;100.00;101704.69;5010760;28;20030;-64
2023/09/15 03:49:21;;;;;;;14.32;13.13;;;;;;;9.99;100.00;101707.16;5010157;28;20060;-64
2023/09/15 03:51:47;;;;;;;14.75;13.25;;;;;;;9.96;100.00;101705.31;5010543;28;20045;-64
2023/09/15 03:54:12;;;;;;;15.25;13.73;;;;;;;9.95;100.00;101702.63;5010684;28;20026;-64
2023/09/15 03:56:37;;;;;;;13.95;12.65;;;;;;;9.93;100.00;101704.28;5010357;28;20058;-64
2023/09/15 03:59:03;;;;;;;14.52;13.27;;;;;;;9.91;100.00;101700.72;5010501;28;20565;-64
2023/09/15 04:01:29;;;;;;;13.75;12.45;;;;;;;9.89;100.00;101702.34;5010453;28;20018;-64
2023/09/15 04:03:55;;;;;;;13.32;12.05;;;;;;;9.87;100.00;101703.97;5010632;28;20022;-63
2023/09/15 04:06:20;;;;;;;13.93;12.70;;;;;;;9.83;100.00;101698.66;5010440;28;20513;-63
2023/09/15 04:08:46;;;;;;;13.70;12.43;;;;;;;9.81;100.00;101697.69;5010368;28;20034;-63
2023/09/15 04:11:12;;;;;;;14.05;12.75;;;;;;;9.81;100.00;101695.09;5010172;28;20164;-64
2023/09/15 04:13:40;;;;;;;14.25;13.02;;;;;;;9.77;100.00;101700.94;5009024;28;20116;-64
2023/09/15 04:16:06;;;;;;;13.60;12.30;;;;;;;9.77;100.00;101703.50;5010018;28;20030;-63
2023/09/15 04:18:34;;;;;;;13.50;12.10;;;;;;;9.76;100.00;101708.63;5010007;28;20030;-63
2023/09/15 04:20:59;;;;;;;13.05;11.90;;;;;;;9.71;100.00;101692.88;5009638;28;20398;-64
2023/09/15 04:23:25;;;;;;;13.95;12.73;;;;;;;9.71;100.00;101693.75;5010120;28;20038;-62
2023/09/15 04:25:50;;;;;;;14.23;12.82;;;;;;;9.70;100.00;101697.16;5008728;28;20030;-62
2023/09/15 04:28:15;;;;;;;13.32;12.10;;;;;;;9.70;100.00;101697.16;5009305;28;20021;-64
2023/09/15 04:30:42;;;;;;;14.25;12.85;;;;;;;9.70;100.00;101693.66;5010040;28;20056;-64
2023/09/15 04:33:07;;;;;;;14.65;13.13;;;;;;;9.71;100.00;101695.47;5010026;28;20497;-64
2023/09/15 04:35:32;;;;;;;14.07;12.77;;;;;;;9.69;100.00;101686.72;5010030;28;20030;-64
2023/09/15 04:37:58;;;;;;;13.40;12.15;;;;;;;9.69;100.00;101697.09;5009657;28;20105;-64
2023/09/15 04:40:24;;;;;;;14.55;13.15;;;;;;;9.67;100.00;101693.53;5009308;28;20565;-64
2023/09/15 04:42:49;;;;;;;13.93;12.48;;;;;;;9.63;100.00;101691.59;5009841;28;20030;-64
2023/09/15 04:45:14;;;;;;;13.52;12.23;;;;;;;9.61;100.00;101697.59;5009491;28;20037;-64
2023/09/15 04:47:40;;;;;;;14.23;12.80;;;;;;;9.58;100.00;101687.09;5009497;28;20091;-64
2023/09/15 04:50:07;;;;;;;14.68;13.27;;;;;;;9.57;100.00;101685.28;5009465;28;20172;-64
2023/09/15 04:52:32;;;;;;;13.75;12.50;;;;;;;9.56;100.00;101683.53;5008601;28;20029;-64
2023/09/15 04:54:58;;;;;;;15.18;13.77;;;;;;;9.55;100.00;101686.91;5009529;28;20037;-63
2023/09/15 04:57:23;;;;;;;15.00;13.43;;;;;;;9.53;100.00;101688.56;5009272;28;20034;-63
2023/09/15 04:59:49;;;;;;;14.32;12.80;;;;;;;9.53;100.00;101703.19;5007533;28;20032;-63
2023/09/15 05:02:14;;;;;;;14.40;13.10;;;;;;;9.52;100.00;101707.47;5007111;28;20044;-64
2023/09/15 05:04:40;;;;;;;14.02;12.73;;;;;;;9.51;100.00;101707.41;5007322;28;20033;-63
2023/09/15 05:07:06;;;;;;;14.73;13.32;;;;;;;9.52;100.00;101701.41;5007454;28;20103;-64
2023/09/15 05:09:31;;;;;;;12.45;11.18;;;;;;;9.50;100.00;101703.91;5007716;28;20087;-64
2023/09/15 05:11:57;;;;;;;14.68;13.23;;;;;;;9.49;100.00;101702.16;5007327;28;20037;-64
2023/09/15 05:14:22;;;;;;;13.88;12.48;;;;;;;9.46;100.00;101702.88;5008731;28;20846;-64
2023/09/15 05:16:48;;;;;;;14.05;12.75;;;;;;;9.46;100.00;101708.03;5008963;28;20037;-64
2023/09/15 05:19:14;;;;;;;13.18;12.07;;;;;;;9.46;100.00;101712.34;5008637;28;20366;-62
2023/09/15 05:21:39;;;;;;;14.00;12.60;;;;;;;9.45;100.00;101714.03;5009037;28;20044;-64
2023/09/15 05:24:05;;;;;;;15.20;13.18;;;;;;;9.45;100.00;101716.63;5009218;28;20028;-64
2023/09/15 05:26:30;;;;;;;13.82;12.52;;;;;;;9.46;100.00;101713.22;5008989;28;20026;-64
2023/09/15 05:28:55;;;;;;;13.93;11.73;;;;;;;9.46;100.00;101713.22;5009076;28;20214;-64
2023/09/15 05:31:25;;;;;;;14.40;12.95;;;;;;;9.47;100.00;101716.69;5008194;28;20022;-65
2023/09/15 05:33:51;;;;;;;15.13;13.63;;;;;;;9.49;100.00;101717.69;5009321;28;20049;-64
2023/09/15 05:36:16;;;;;;;14.52;13.07;;;;;;;9.49;100.00;101713.41;5008066;28;20061;-65
2023/09/15 05:38:42;;;;;;;15.38;12.52;;;;;;;9.49;100.00;101717.69;5008912;28;20030;-64
2023/09/15 05:41:07;;;;;;;15.02;13.43;;;;;;;9.51;100.00;101713.47;5008479;28;20037;-64
2023/09/15 05:43:32;;;;;;;15.25;13.75;;;;;;;9.54;100.00;101707.53;5008283;28;20533;-64
2023/09/15 05:45:57;;;;;;;14.35;12.95;;;;;;;9.55;100.00;101712.78;5008536;28;20069;-63
2023/09/15 05:48:23;;;;;;;14.65;12.95;;;;;;;9.57;100.00;101713.75;5008475;28;20025;-64
2023/09/15 05:50:50;;;;;;;13.27;12.07;;;;;;;9.61;100.00;101712.22;5008644;28;20022;-64
2023/09/15 05:53:15;;;;;;;13.52;12.15;;;;;;;9.65;100.00;101708.97;5008424;28;20484;-64
2023/09/15 05:55:40;;;;;;;13.15;11.82;;;;;;;9.69;100.00;101715.19;5008568;28;20038;-64
2023/09/15 05:58:05;;;;;;;13.05;11.75;;;;;;;9.75;100.00;101715.47;5007863;28;20034;-63
2023/09/15 06:00:31;;;;;;;13.02;11.73;;;;;;;9.81;100.00;101718.41;5008603;28;20104;-64
2023/09/15 06:02:58;;;;;;;13.55;12.25;;;;;;;9.87;100.00;101716.91;5008187;28;20049;-64
2023/09/15 06:05:25;;;;;;;14.30;13.00;;;;;;;9.91;100.00;101722.31;5008300;28;20030;-64
2023/09/15 06:07:51;;;;;;;14.60;13.30;;;;;;;9.98;100.00;101710.56;5007488;28;20089;-64
2023/09/15 06:10:17;;;;;;;15.30;12.52;;;;;;;10.05;100.00;101720.41;5008212;28;20038;-64
2023/09/15 06:12:43;;;;;;;15.95;13.63;;;;;;;10.13;100.00;101722.47;5008277;28;20030;-64
2023/09/15 06:15:09;;;;;;;16.20;14.52;;;;;;;10.21;100.00;101711.69;5008332;28;20030;-64
2023/09/15 06:17:35;;;;;;;15.60;14.02;;;;;;;10.33;100.00;101718.22;5007509;28;20612;-64
2023/09/15 06:20:00;;;;;;;16.65;14.95;;;;;;;10.43;100.00;101725.63;5007979;28;20104;-64
2023/09/15 06:22:26;;;;;;;16.48;13.32;;;;;;;10.53;100.00;101719.19;5007838;28;20040;-64
2023/09/15 06:24:51;;;;;;;15.18;13.65;;;;;;;10.65;100.00;101718.00;5008342;28;20022;-64
2023/09/15 06:27:16;;;;;;;15.32;12.95;;;;;;;10.77;100.00;101712.47;5007044;28;20056;-64
2023/09/15 06:29:42;;;;;;;14.50;12.98;;;;;;;10.89;100.00;101717.31;5007768;28;20447;-64
2023/09/15 06:32:07;;;;;;;13.65;12.35;;;;;;;11.02;100.00;101719.66;5008125;28;20030;-64
2023/09/15 06:34:32;;;;;;;15.05;13.55;;;;;;;11.14;100.00;101714.13;5007883;28;20037;-64
2023/09/15 06:36:58;;;;;;;14.68;12.35;;;;;;;11.28;100.00;101711.22;5007480;28;20034;-64
2023/09/15 06:39:24;;;;;;;13.25;11.85;;;;;;;11.41;100.00;101712.63;5007908;28;20119;-64
2023/09/15 06:41:50;;;;;;;14.88;11.18;;;;;;;11.63;100.00;101713.53;5007143;28;20115;-64
2023/09/15 06:44:15;;;;;;;12.05;11.02;;;;;;;11.94;100.00;101709.63;5007807;28;20045;-64
2023/09/15 06:46:40;;;;;;;11.27;10.15;;;;;;;12.39;100.00;101713.13;5007426;28;20026;-65
2023/09/15 06:49:06;;;;;;;11.63;10.48;;;;;;;12.78;100.00;101711.94;5009632;28;20164;-65
2023/09/15 06:51:32;;;;;;;11.15;10.05;;;;;;;12.93;100.00;101711.59;5011850;28;21155;-65
2023/09/15 06:53:58;;;;;;;11.25;10.25;;;;;;;13.16;100.00;101708.06;5011597;28;20025;-65
2023/09/15 06:56:23;;;;;;;10.25;9.15;;;;;;;13.43;100.00;101705.53;5011876;28;20022;-65
2023/09/15 06:58:48;;;;;;;10.25;9.07;;;;;;;13.64;100.00;101707.13;5011529;28;20030;-65
2023/09/15 07:01:14;;;;;;;10.77;9.25;;;;;;;13.77;100.00;101703.22;5011973;28;20564;-65
2023/09/15 07:03:39;;;;;;;11.00;9.00;;;;;;;13.80;100.00;101702.41;5011595;28;20028;-65
2023/09/15 07:06:04;;;;;;;10.68;9.60;;;;;;;13.81;100.00;101698.97;5011303;28;20038;-64
2023/09/15 07:08:29;;;;;;;9.75;8.70;;;;;;;13.76;100.00;101709.22;5011508;28;20410;-65
2023/09/15 07:10:55;;;;;;;10.45;9.45;;;;;;;13.79;100.00;101708.47;5011320;28;20541;-64
2023/09/15 07:13:20;;;;;;;11.70;10.50;;;;;;;13.68;100.00;101709.00;5011089;28;20025;-65
2023/09/15 07:15:47;;;;;;;10.32;9.35;;;;;;;13.61;100.00;101696.59;5011440;28;20053;-65
2023/09/15 07:18:13;;;;;;;10.85;8.73;;;;;;;13.62;100.00;101698.38;5011726;28;20034;-65
2023/09/15 07:20:38;;;;;;;10.80;9.65;;;;;;;13.78;100.00;101693.69;5011015;28;20032;-64
2023/09/15 07:23:03;;;;;;;13.68;10.63;;;;;;;14.21;100.00;101694.13;5011056;28;20505;-64
2023/09/15 07:25:29;;;;;;;9.80;8.82;;;;;;;14.58;100.00;101689.13;5011125;28;20046;-64
2023/09/15 07:27:54;;;;;;;9.90;8.73;;;;;;;15.24;100.00;101693.53;5011013;28;20025;-65
2023/09/15 07:30:19;;;;;;;9.82;8.32;;;;;;;15.47;100.00;101693.28;5010837;28;20029;-65
2023/09/15 07:32:45;;;;;;;10.73;8.13;;;;;;;15.78;100.00;101688.78;5010711;28;20061;-64
2023/09/15 07:35:12;;;;;;;10.35;8.43;;;;;;;16.13;100.00;101685.25;5010444;28;20099;-65
2023/09/15 07:37:37;;;;;;;9.43;8.55;;;;;;;16.76;100.00;101690.06;5010713;28;20514;-64
2023/09/15 07:40:05;;;;;;;7.90;7.10;;;;;;;17.23;100.00;101693.56;5010885;28;20109;-64
2023/09/15 07:42:30;;;;;;;6.97;6.28;;;;;;;17.70;100.00;101693.44;5010761;28;20029;-65
2023/09/15 07:44:56;;;;;;;7.55;6.63;;;;;;;18.03;100.00;101691.28;5011054;28;20470;-65
2023/09/15 07:47:21;;;;;;;10.00;6.53;;;;;;;18.39;100.00;101689.19;5010868;28;20030;-65
2023/09/15 07:49:46;;;;;;;9.15;7.32;;;;;;;18.72;100.00;101686.13;5010677;28;20052;-65
2023/09/15 07:52:11;;;;;;;7.82;6.25;;;;;;;18.69;100.00;101683.44;5010161;28;20061;-66
2023/09/15 07:54:37;;;;;;;7.90;5.93;;;;;;;18.90;100.00;101691.53;5010835;28;20081;-65
2023/09/15 07:57:03;;;;;;;6.60;5.55;;;;;;;18.99;100.00;101683.78;5010170;28;20021;-65
2023/09/15 07:59:29;;;;;;;8.05;6.72;;;;;;;19.37;100.00;101685.03;5010612;28;20026;-65
2023/09/15 08:01:54;;;;;;;7.00;6.30;;;;;;;19.53;98.41;101687.78;5009826;28;20390;-65
2023/09/15 08:04:19;;;;;;;7.25;6.13;;;;;;;19.85;97.21;101683.63;5010584;28;20025;-65
2023/09/15 08:06:45;;;;;;;7.53;5.68;;;;;;;20.26;95.95;101684.75;5009961;28;20133;-65
2023/09/15 08:09:10;;;;;;;7.95;5.75;;;;;;;20.41;91.79;101689.22;5010421;28;20034;-65
2023/09/15 08:11:39;;;;;;;7.25;6.40;;;;;;;20.66;89.30;101683.16;5009667;28;20065;-65
2023/09/15 08:14:04;;;;;;;6.00;5.40;;;;;;;20.63;91.24;101684.91;5010629;28;20040;-65
2023/09/15 08:16:30;;;;;;;7.75;6.00;;;;;;;20.80;91.71;101681.44;5010395;28;20030;-66
2023/09/15 08:18:55;;;;;;;6.63;6.03;;;;;;;20.78;89.26;101683.19;5009705;28;20033;-65
2023/09/15 08:21:20;;;;;;;8.68;6.13;;;;;;;20.93;90.91;101687.63;5010534;28;20470;-66
2023/09/15 08:23:46;;;;;;;6.18;5.50;;;;;;;21.09;90.50;101683.28;5009902;28;20022;-65
2023/09/15 08:26:11;;;;;;;6.47;5.22;;;;;;;20.96;89.91;101684.13;5009826;28;20030;-66
2023/09/15 08:28:36;;;;;;;6.68;5.90;;;;;;;21.07;89.85;101686.78;5025147;28;20029;-65
2023/09/15 08:31:01;;;;;;;7.15;5.90;;;;;;;21.00;86.44;101683.28;5009983;28;20034;-66
2023/09/15 08:33:27;;;;;;;7.50;5.75;;;;;;;21.41;86.89;101683.28;5009866;28;20466;-65
2023/09/15 08:35:52;;;;;;;5.72;5.22;;;;;;;21.39;84.99;101688.56;5009740;28;20150;-66
2023/09/15 08:38:18;;;;;;;6.63;5.85;;;;;;;21.45;85.04;101685.94;5010256;28;20122;-65
2023/09/15 08:40:49;;;;;;;6.80;5.40;;;;;;;21.58;81.31;101684.19;5009802;28;20030;-66
2023/09/15 08:43:15;;;;;;;7.80;4.95;;;;;;;21.67;85.67;101685.03;5009689;28;20022;-65
2023/09/15 08:45:44;;;;;;;8.40;5.60;;;;;;;21.63;83.62;101683.28;5009808;28;20195;-65
2023/09/15 08:48:10;;;;;;;6.75;5.30;;;;;;;21.89;81.48;101680.63;5009632;28;20029;-66
2023/09/15 08:50:38;;;;;;;7.55;5.20;;;;;;;21.81;81.66;101680.66;5009701;28;20030;-66
2023/09/15 08:53:04;;;;;;;7.95;5.60;;;;;;;21.66;79.62;101678.03;5009756;28;20030;-66
2023/09/15 08:55:30;;;;;;;6.07;4.80;;;;;;;21.72;78.06;101670.09;5009310;28;20038;-66
2023/09/15 08:57:57;;;;;;;6.28;4.70;;;;;;;21.69;79.95;101675.38;5009472;28;20041;-65
2023/09/15 09:00:23;;;;;;;5.57;4.90;;;;;;;21.58;81.61;101676.28;5009855;28;20022;-66
2023/09/15 09:02:50;;;;;;;6.68;5.38;;;;;;;21.57;81.00;101673.63;5009191;28;20390;-66
2023/09/15 09:05:16;;;;;;;5.93;4.85;;;;;;;21.55;80.86;101663.06;5009599;28;20033;-66
2023/09/15 09:07:42;;;;;;;7.53;4.93;;;;;;;21.62;82.79;101665.72;5008785;28;20064;-66
2023/09/15 09:10:07;;;;;;;6.55;5.15;;;;;;;21.39;80.60;101672.75;5008842;28;20030;-66
2023/09/15 09:12:33;;;;;;;8.25;5.30;;;;;;;21.41;81.18;101678.00;5008862;28;20036;-66
2023/09/15 09:15:00;;;;;;;5.53;5.00;;;;;;;21.29;84.04;101671.88;5009317;28;20030;-66
2023/09/15 09:17:26;;;;;;;5.65;4.70;;;;;;;21.42;83.94;101669.25;5009110;28;20036;-64
2023/09/15 09:19:51;;;;;;;6.95;5.00;;;;;;;21.32;83.26;101663.97;5008748;28;20033;-66
2023/09/15 09:22:18;;;;;;;7.13;5.00;;;;;;;21.36;85.69;101664.84;5009278;28;20058;-65
2023/09/15 09:24:45;;;;;;;5.28;4.20;;;;;;;21.49;85.24;101665.72;5008639;28;20111;-66
2023/09/15 09:27:11;;;;;;;4.22;3.75;;;;;;;21.57;82.68;101663.06;5009217;28;20518;-66
2023/09/15 09:29:37;;;;;;;5.43;4.47;;;;;;;21.46;82.03;101666.59;5008814;28;20119;-66
2023/09/15 09:32:04;;;;;;;5.93;4.78;;;;;;;21.35;83.95;101660.47;5008932;28;20049;-66
2023/09/15 09:34:30;;;;;;;6.00;4.75;;;;;;;21.22;86.80;101656.94;5009266;28;20056;-66
2023/09/15 09:36:55;;;;;;;5.47;4.70;;;;;;;21.05;87.73;101662.19;5008873;28;20026;-65
2023/09/15 09:39:21;;;;;;;5.47;4.70;;;;;;;21.14;87.58;101654.31;5009124;28;20029;-66
2023/09/15 09:41:46;;;;;;;5.80;4.70;;;;;;;21.15;86.60;101657.81;5008393;28;20022;-66
2023/09/15 09:44:15;;;;;;;5.43;4.78;;;;;;;21.21;86.14;101656.06;5008985;28;20367;-66
2023/09/15 09:46:41;;;;;;;7.25;5.05;;;;;;;21.23;86.42;101658.69;5008414;28;20048;-66
2023/09/15 09:49:07;;;;;;;6.05;4.97;;;;;;;21.24;85.24;101647.28;5008710;28;20021;-66
2023/09/15 09:51:35;;;;;;;6.18;4.57;;;;;;;21.19;87.48;101646.41;5008753;28;20029;-66
2023/09/15 09:54:00;;;;;;;5.88;4.53;;;;;;;21.14;86.44;101648.19;5008612;28;20018;-65
2023/09/15 09:56:26;;;;;;;6.28;5.22;;;;;;;21.10;87.31;101642.03;5008600;28;20505;-65
2023/09/15 09:58:51;;;;;;;6.85;4.65;;;;;;;21.06;89.42;101651.69;5008352;28;20064;-66
2023/09/15 10:01:16;;;;;;;7.18;5.65;;;;;;;21.02;84.80;101649.91;5007877;28;20036;-65
2023/09/15 10:03:42;;;;;;;5.57;5.07;;;;;;;20.98;84.66;101643.75;5008545;28;20033;-66
2023/09/15 10:06:08;;;;;;;5.63;4.57;;;;;;;20.97;87.78;101643.75;5008628;28;20046;-66
2023/09/15 10:08:35;;;;;;;6.60;4.43;;;;;;;20.96;87.98;101640.25;5008356;28;20105;-66
2023/09/15 10:11:04;;;;;;;8.32;5.35;;;;;;;21.01;86.96;101637.63;5008357;28;20470;-66
2023/09/15 10:13:32;;;;;;;6.35;4.57;;;;;;;21.03;85.60;101641.13;5007647;28;20022;-66
2023/09/15 10:15:57;;;;;;;5.72;4.65;;;;;;;21.00;85.49;101635.84;5008157;28;20026;-65
2023/09/15 10:18:23;;;;;;;6.18;4.90;;;;;;;20.90;85.03;101628.78;5008673;28;20493;-66
2023/09/15 10:20:53;;;;;;;6.72;4.07;;;;;;;20.99;89.19;101615.69;5008132;28;20026;-66
2023/09/15 10:23:19;;;;;;;4.03;3.53;;;;;;;21.07;91.84;101618.28;5007154;28;20037;-64
2023/09/15 10:25:48;;;;;;;4.75;3.88;;;;;;;21.05;86.81;101613.03;5007690;28;20425;-66
2023/09/15 10:28:14;;;;;;;5.63;3.78;;;;;;;21.18;88.29;101615.66;5008323;28;20136;-65
2023/09/15 10:30:40;;;;;;;4.97;3.72;;;;;;;21.27;88.14;101607.75;5007729;28;20022;-66
2023/09/15 10:33:07;;;;;;;6.10;4.07;;;;;;;21.36;85.08;101601.59;5008197;28;20029;-66
2023/09/15 10:35:33;;;;;;;5.95;3.75;;;;;;;21.45;85.09;101611.25;5007869;28;20034;-65
2023/09/15 10:38:04;;;;;;;5.93;4.40;;;;;;;21.54;86.44;101603.31;5008222;28;20092;-64
2023/09/15 10:40:42;;;;;;;;;;;;;;;21.65;84.61;101599.78;5008227;28;20025;-66
2023/09/15 10:43:07;;;;;;;4.55;3.83;;;;;;;21.79;86.95;101595.34;5008013;28;20369;-66
2023/09/15 10:45:33;;;;;;;5.68;3.42;;;;;;;21.80;84.58;101602.41;5008052;28;20026;-66
2023/09/15 10:48:02;;;;;;;5.15;3.65;;;;;;;21.88;85.16;101598.88;5007643;28;20356;-65
2023/09/15 10:50:39;;;;;;;4.47;4.00;;;;;;;21.99;82.91;101593.56;5007490;28;20414;-66
2023/09/15 10:53:07;;;;;;;5.05;4.30;;;;;;;22.03;80.00;101593.56;5007775;28;20272;-66
2023/09/15 10:55:32;;;;;;;4.78;3.83;;;;;;;21.98;81.16;101590.06;5007651;28;20099;-66
2023/09/15 10:57:58;;;;;;;4.75;3.80;;;;;;;21.90;80.82;101589.19;5007903;28;20049;-65
2023/09/15 11:00:24;;;;;;;4.63;3.47;;;;;;;22.07;85.23;101578.59;5007691;28;20026;-66
2023/09/15 11:02:50;;;;;;;4.65;3.70;;;;;;;22.13;81.28;101583.81;5007951;28;20028;-67
2023/09/15 11:05:15;;;;;;;4.43;3.50;;;;;;;22.24;79.35;101573.22;5007196;28;20034;-66
2023/09/15 11:07:42;;;;;;;5.13;3.90;;;;;;;22.26;77.76;101574.09;5007520;28;20494;-66